Terminal Aerodrome Forecast
Issued by NWS

Home | Current Version | Previous Version | Text Only | Print | Product List | Glossary On
Versions: 1 2 3 4 5 6 7 8 9 10 11 12 13 14 15 16 17 18 19 20 21 22 23
000
FTUS43 KAPX 310905 AAB
TAFMBL
TAF AMD
KMBL 310905Z 3109/0106 14003KT P6SM BKN150
     FM311200 24004KT P6SM OVC028
     FM311900 31006KT P6SM OVC022
      AMD LTD TO CLD VIS AND WIND=

USA.gov is the U.S. government's official web portal to all federal, state and local government web resources and services.